Flight Track Log - Related Links

Times and Time Zones

All times are in EDT time to prevent confusion due to time zone crossing. See the AWE3827 flight status page for this flight to view local times or setup timezone preferences in your user account.

Time Position Orientation Groundspeed Altitude Reporting Facility
EDT Latitude Longitude Course Direction KTS MPH feet Rate Location/Type
08:17AM 35.2311 -80.9597 239° Southwest 160 184 1,900  Level Atlanta Center
08:17AM 35.2569 -80.9683 345° North 203 234 2,800 1,667 Climbing FAA TRACON SMA TRACON (SMA)
08:18AM 35.2719 -80.9833 321° Northwest 236 272 3,400 1,846 Climbing FAA TRACON SMA TRACON (SMA)
08:18AM 35.2875 -81.0022 315° West 267 307 4,000 2,850 Climbing FAA TRACON SMA TRACON (SMA)
08:18AM 35.2947 -81.0367 284° West 277 319 5,300 3,450 Climbing FAA TRACON SMA TRACON (SMA)
08:19AM 35.2911 -81.0656 261° West 283 326 6,300 3,300 Climbing FAA TRACON SMA TRACON (SMA)
08:19AM 35.2864 -81.1014 261° West 279 321 7,500 2,550 Climbing FAA TRACON SMA TRACON (SMA)
08:19AM 35.2825 -81.1297 260° West 276 318 8,000 750 Climbing FAA TRACON SMA TRACON (SMA)
08:20AM 35.2459 -81.2651 242° Southwest  Level FlightAware Approximate
08:20AM 35.2792 -81.1581 262° West 276 318 8,000  Level FAA TRACON SMA TRACON (SMA)
08:20AM 35.2756 -81.1864 261° West 275 316 8,000  Level FAA TRACON SMA TRACON (SMA)
08:20AM 35.2703 -81.2217 260° West 275 316 8,000  Level FAA TRACON SMA TRACON (SMA)
08:21AM 35.1995 -81.3677 239° Southwest  Level FlightAware Approximate
08:21AM 35.2614 -81.2483 248° West 282 325 8,000  Level FAA TRACON SMA TRACON (SMA)
08:21AM 35.2481 -81.2800 243° Southwest 276 318 8,500 2,250 Climbing FAA TRACON SMA TRACON (SMA)
08:21AM 35.2364 -81.3056 241° Southwest 278 320 9,500 2,850 Climbing FAA TRACON SMA TRACON (SMA)
08:22AM 35.1496 -81.4676 239° Southwest  Level FlightAware Approximate
08:22AM 35.2247 -81.3314 241° Southwest 280 322 10,400  Level FAA TRACON SMA TRACON (SMA)
08:22AM 35.2133 -81.3572 242° Southwest 280 322 11,200 1,950 Climbing FAA TRACON SMA TRACON (SMA)
08:22AM 35.1975 -81.3906 240° Southwest 291 335 11,700 1,950 Climbing FAA TRACON SMA TRACON (SMA)
08:23AM 35.1847 -81.4203 242° Southwest 312 359 12,500 2,700 Climbing FAA TRACON SMA TRACON (SMA)
08:23AM 35.1689 -81.4561 242° Southwest 314 361 13,500 2,488 Climbing FAA TRACON SMA TRACON (SMA)
08:23AM 35.1564 -81.4847 242° Southwest 311 358 14,200 2,000 Climbing FAA TRACON SMA TRACON (SMA)
08:24AM 35.1489 -81.5161 254° West 318 366 14,800 2,250 Climbing FAA TRACON SMA TRACON (SMA)
08:24AM 35.1447 -81.5575 263° West 323 372 15,700 2,250 Climbing FAA TRACON SMA TRACON (SMA)
08:24AM 35.1419 -81.5903 264° West 318 366 16,300 1,116 Climbing FAA TRACON SMA TRACON (SMA)
08:25AM 35.1417 -81.6231 269° West 321 369 16,500 1,364 Climbing FAA TRACON SMA TRACON (SMA)
08:25AM 35.1361 -81.6672 261° West 329 379 17,300 2,270 Climbing FAA TRACON SMA TRACON (SMA)
08:25AM 35.1333 -81.7025 265° West 334 384 17,900 973 Climbing FAA TRACON SMA TRACON (SMA)
08:26AM 35.1303 -81.7372 264° West 335 386 17,900 750 Level FAA TRACON SMA TRACON (SMA)
08:26AM 35.1275 -81.7722 264° West 334 384 18,400 1,538 Climbing FAA TRACON SMA TRACON (SMA)
08:26AM 35.1239 -81.8161 264° West 337 388 18,900 1,350 Climbing FAA TRACON SMA TRACON (SMA)
08:27AM 35.1214 -81.8519 265° West 341 392 19,300 1,317 Climbing FAA TRACON SMA TRACON (SMA)
08:27AM 35.1183 -81.8881 264° West 343 395 19,800 1,650 Climbing FAA TRACON SMA TRACON (SMA)
08:27AM 35.1178 -81.9317 269° West 346 398 20,400 1,800 Climbing FAA TRACON SMA TRACON (SMA)
08:28AM 35.1114 -81.9692 258° West 344 396 21,000 1,538 Climbing FAA TRACON SMA TRACON (SMA)
08:28AM 35.1089 -82.0044 265° West 342 394 21,400 1,500 Climbing FAA TRACON SMA TRACON (SMA)
08:28AM 35.1050 -82.0483 264° West 340 391 22,000 1,610 Climbing FAA TRACON SMA TRACON (SMA)
08:29AM 35.1033 -82.0747 266° West 339 390 22,500 750 Climbing FAA TRACON SMA TRACON (SMA)
08:29AM 35.1033 -82.0747 331° Northwest 339 390 22,500 1,800 Level FAA TRACON SMA TRACON (SMA)
08:30AM 35.0953 -82.2033 266° West 343 395 24,300 1,980 Climbing Atlanta Center
08:31AM 35.0967 -82.2972 271° West 332 382 25,800 850 Climbing Atlanta Center
08:32AM 35.1503 -82.3928 304° West 319 367 26,000 99 Climbing Atlanta Center
08:33AM 35.2078 -82.5008 303° West 352 405 26,000  Level Atlanta Center
08:34AM 35.2550 -82.6017 300° West 352 405 26,000  Level Atlanta Center
08:35AM 35.3083 -82.7000 304° West 352 405 26,000  Level Atlanta Center
08:36AM 35.3594 -82.8061 301° West 357 411 26,000  Level Atlanta Center
08:37AM 35.4169 -82.9175 302° West 357 411 26,000  Level Atlanta Center
08:38AM 35.4678 -83.0214 301° West 352 405 26,000  Level Atlanta Center
08:39AM 35.5208 -83.1253 302° West 357 411 26,000  Level Atlanta Center
08:40AM 35.5653 -83.2092 303° West 357 411 26,000  Level Atlanta Center
08:41AM 35.6222 -83.3233 302° West 357 411 26,000  Level Atlanta Center
08:42AM 35.6731 -83.4303 300° West 357 411 26,000  Level Atlanta Center
08:43AM 35.7278 -83.5322 303° West 357 411 26,000  Level Atlanta Center
08:44AM 35.7781 -83.6369 301° West 357 411 26,000  Level Atlanta Center
08:45AM 35.8283 -83.7417 301° West 357 411 26,000  Level Atlanta Center
08:46AM 35.8808 -83.8439 302° West 357 411 26,000 -50 Level Atlanta Center
08:47AM 35.8933 -83.9567 278° West 340 391 25,900 -600 Descending Atlanta Center
08:48AM 35.8747 -84.0719 259° West 332 382 24,800 -958 Descending Atlanta Center
08:49AM 35.8558 -84.1950 259° West 345 397 24,000 -750 Descending Atlanta Center
08:50AM 35.8347 -84.3128 258° West 359 413 23,300 -645 Descending Atlanta Center
08:51AM 35.8156 -84.4383 259° West 365 420 22,700 -600 Descending Atlanta Center
08:52AM 35.7944 -84.5583 258° West 365 420 22,100 -650 Descending Atlanta Center
08:53AM 35.7728 -84.6836 258° West 365 420 21,400 -613 Descending Atlanta Center
08:55AM 35.7358 -84.8944 258° West 320 368 20,200 -454 Descending Memphis Center
08:56AM 35.7197 -85.0003 259° West 320 368 20,000 -100 Descending Memphis Center
08:57AM 35.7122 -85.1158 265° West 327 376 20,000  Level Memphis Center
08:58AM 35.7047 -85.2417 266° West 352 405 20,000 -700 Level Memphis Center
08:59AM 35.6981 -85.3800 267° West 368 423 18,600 -1,250 Descending Memphis Center
09:00AM 35.6925 -85.5081 267° West 373 429 17,500 -1,300 Descending Memphis Center
09:01AM 35.6850 -85.6389 266° West 378 435 16,000 -1,550 Descending Memphis Center
09:02AM 35.6794 -85.7669 267° West 378 435 14,400 -1,550 Descending Memphis Center
09:03AM 35.6758 -85.8950 268° West 384 442 12,900 -1,500 Descending Memphis Center
09:04AM 35.6700 -86.0231 267° West 389 448 11,400 -1,300 Descending Memphis Center
09:05AM 35.7086 -86.1181 297° West 321 369 10,300 -1,250 Descending Memphis Center
09:06AM 35.7467 -86.1903 303° West 299 344 8,900 -1,450 Descending Memphis Center
09:07AM 35.7889 -86.2700 303° West 283 326 7,400 -1,350 Descending Memphis Center
09:08AM 35.8311 -86.3500 303° West 271 312 6,200 -1,100 Descending Memphis Center
09:09AM 35.8711 -86.4275 303° West 271 312 5,200 -1,100 Descending Memphis Center
09:10AM 35.9131 -86.5047 304° West 271 312 4,000 -1,000 Descending Memphis Center
09:11AM 35.9486 -86.5750 302° West 260 299 3,200 -750 Descending Memphis Center
09:12AM 35.9864 -86.6475 303° West 239 275 2,500 -700 Descending Memphis Center

Login

Don't have an account? Register now (free) for customized features, flight alerts, and more!